Time;durP1;ratioP1;P1;durP2;ratioP2;P2;SDS_P1;SDS_P2;PMS_P1;PMS_P2;Temp;Humidity;BMP_temperature;BMP_pressure;BME280_temperature;BME280_humidity;BME280_pressure;Samples;Min_cycle;Max_cycle;Signal;HPM_P1;HPM_P2
2021/08/23 00:01:54;;;;;;;13.23;9.48;;;;;;;12.49;61.51;95801.19;5011123;28;20865;-69
2021/08/23 00:04:20;;;;;;;12.00;9.93;;;;;;;12.86;60.17;95803.91;5011905;28;20102;-69
2021/08/23 00:06:45;;;;;;;13.07;8.80;;;;;;;12.45;61.06;95802.59;5010921;28;20578;-69
2021/08/23 00:09:10;;;;;;;14.73;9.95;;;;;;;12.62;60.67;95806.69;5011275;28;20042;-69
2021/08/23 00:11:36;;;;;;;12.57;8.75;;;;;;;12.44;61.39;95800.94;5010560;28;20053;-69
2021/08/23 00:14:01;;;;;;;11.65;9.15;;;;;;;12.01;62.68;95807.72;5004508;28;20042;-69
2021/08/23 00:16:27;;;;;;;11.07;9.07;;;;;;;12.53;61.44;95806.00;5011416;28;20038;-69
2021/08/23 00:18:52;;;;;;;10.95;8.60;;;;;;;12.67;60.77;95798.97;5010930;28;20096;-71
2021/08/23 00:21:22;;;;;;;10.02;7.30;;;;;;;12.48;61.09;95797.69;5010291;28;20030;-70
2021/08/23 00:24:07;;;;;;;10.18;7.88;;;;;;;12.63;60.79;95796.84;5011526;28;20585;-70
2021/08/23 00:26:33;;;;;;;11.95;8.57;;;;;;;12.90;59.85;95794.50;5010324;28;20066;-71
2021/08/23 00:28:58;;;;;;;11.05;8.48;;;;;;;13.31;58.49;95801.13;5010985;28;20506;-71
2021/08/23 00:31:24;;;;;;;10.23;8.10;;;;;;;12.91;59.57;95794.31;5009056;28;20034;-71
2021/08/23 00:33:50;;;;;;;11.38;8.98;;;;;;;12.93;59.40;95794.13;5010241;28;20048;-71
2021/08/23 00:36:15;;;;;;;9.82;8.45;;;;;;;12.56;60.64;95799.44;5011059;28;20029;-71
2021/08/23 00:38:40;;;;;;;10.43;8.50;;;;;;;12.77;60.29;95795.16;5010190;28;20184;-71
2021/08/23 00:41:06;;;;;;;12.13;9.30;;;;;;;13.17;58.90;95806.34;5009997;28;20045;-71
2021/08/23 00:43:32;;;;;;;14.95;9.05;;;;;;;13.59;57.60;95795.00;5010345;28;20030;-71
2021/08/23 00:45:58;;;;;;;11.85;9.10;;;;;;;13.27;58.23;95802.53;5010393;28;20049;-71
2021/08/23 00:48:24;;;;;;;11.43;9.30;;;;;;;13.34;57.98;95805.25;5009257;28;20030;-71
2021/08/23 00:50:49;;;;;;;11.95;8.75;;;;;;;12.59;60.08;95806.25;5009962;28;20449;-71
2021/08/23 00:53:15;;;;;;;12.85;10.45;;;;;;;12.88;59.66;95797.34;5006498;28;20033;-71
2021/08/23 00:55:41;;;;;;;12.75;9.70;;;;;;;13.16;58.50;95810.00;5010536;28;20160;-71
2021/08/23 00:58:06;;;;;;;13.07;9.73;;;;;;;13.01;59.03;95810.06;5008379;28;20383;-71
2021/08/23 01:00:32;;;;;;;11.55;9.20;;;;;;;12.92;59.60;95812.00;5010183;28;20526;-71
2021/08/23 01:03:01;;;;;;;13.05;9.32;;;;;;;12.60;60.61;95808.75;4992339;28;20037;-71
2021/08/23 01:05:28;;;;;;;10.40;7.05;;;;;;;12.98;59.04;95806.94;4992500;28;20026;-71
2021/08/23 01:08:07;;;;;;;13.25;9.43;;;;;;;13.23;58.81;95814.63;5009199;28;20049;-71
2021/08/23 01:10:44;;;;;;;13.35;10.18;;;;;;;13.50;57.60;95820.22;5005227;28;20985;-71
2021/08/23 01:13:10;;;;;;;12.10;9.77;;;;;;;13.06;58.82;95809.53;5002725;28;20525;-71
2021/08/23 01:15:36;;;;;;;12.25;9.50;;;;;;;13.04;59.36;95809.69;5011507;28;20115;-71
2021/08/23 01:18:01;;;;;;;12.00;9.00;;;;;;;12.99;59.09;95813.94;5012174;28;20052;-71
2021/08/23 01:20:27;;;;;;;13.07;9.68;;;;;;;12.99;59.16;95808.59;5010008;28;20054;-71
2021/08/23 01:22:53;;;;;;;10.57;8.73;;;;;;;12.93;59.31;95810.97;5009392;28;20096;-71
2021/08/23 01:25:24;;;;;;;10.32;8.70;;;;;;;12.91;59.26;95807.69;5009671;28;20037;-71
2021/08/23 01:28:08;;;;;;;12.10;9.40;;;;;;;13.19;58.67;95811.47;4992986;28;20022;-71
2021/08/23 01:31:10;;;;;;;12.77;9.60;;;;;;;12.60;60.33;95816.75;5009419;28;20889;-71
2021/08/23 01:33:35;;;;;;;12.95;9.63;;;;;;;12.82;59.69;95814.16;4999458;28;20034;-71
2021/08/23 01:36:00;;;;;;;11.02;9.45;;;;;;;12.91;59.23;95817.53;5008646;28;20033;-71
2021/08/23 01:38:26;;;;;;;10.93;9.38;;;;;;;13.03;59.07;95810.69;5008145;28;20395;-71
2021/08/23 01:41:02;;;;;;;12.30;9.27;;;;;;;13.24;58.37;95814.44;5009241;28;20323;-68
2021/08/23 01:43:27;;;;;;;13.25;9.52;;;;;;;13.15;58.23;95819.06;5008470;28;20025;-68
2021/08/23 01:45:53;;;;;;;12.27;10.00;;;;;;;13.07;58.70;95819.19;5007711;28;20365;-70
2021/08/23 01:48:18;;;;;;;12.63;10.02;;;;;;;13.01;58.33;95820.75;5004896;28;20032;-70
2021/08/23 01:50:43;;;;;;;12.00;9.65;;;;;;;13.23;58.10;95827.97;5008954;28;20468;-71
2021/08/23 01:53:09;;;;;;;12.63;9.82;;;;;;;12.98;58.31;95823.78;5008872;28;20034;-71
2021/08/23 01:55:34;;;;;;;13.98;10.65;;;;;;;13.28;57.76;95820.22;5009430;28;20038;-71
2021/08/23 01:58:02;;;;;;;14.93;11.00;;;;;;;13.43;57.58;95822.84;4994564;28;20046;-71
2021/08/23 02:00:27;;;;;;;11.20;9.15;;;;;;;13.63;56.81;95828.34;5008593;28;20033;-71
2021/08/23 02:02:53;;;;;;;11.32;9.50;;;;;;;13.56;57.20;95832.81;5008298;28;20069;-71
2021/08/23 02:05:18;;;;;;;12.25;9.55;;;;;;;13.79;56.49;95827.25;5008891;28;20080;-71
2021/08/23 02:07:44;;;;;;;13.75;10.00;;;;;;;13.88;56.01;95825.31;5009115;28;20034;-71
2021/08/23 02:10:09;;;;;;;8.43;7.35;;;;;;;13.67;56.78;95826.94;5007418;28;20625;-71
2021/08/23 02:12:35;;;;;;;14.27;10.52;;;;;;;13.78;56.01;95827.44;5004450;28;20037;-71
2021/08/23 02:15:00;;;;;;;12.30;9.23;;;;;;;13.72;56.14;95831.72;5012306;28;20033;-71
2021/08/23 02:17:26;;;;;;;13.55;9.13;;;;;;;13.39;57.17;95834.91;5010495;28;20042;-71
2021/08/23 02:19:51;;;;;;;14.82;9.93;;;;;;;13.61;56.70;95837.59;5008714;28;20475;-71
2021/08/23 02:22:16;;;;;;;13.68;10.38;;;;;;;13.92;55.95;95839.13;5008582;28;20041;-71
2021/08/23 02:24:42;;;;;;;11.45;9.32;;;;;;;14.00;55.47;95841.66;5008564;28;20069;-72
2021/08/23 02:27:07;;;;;;;12.77;9.65;;;;;;;13.92;55.27;95842.63;5008673;28;20089;-71
2021/08/23 02:29:33;;;;;;;11.27;9.63;;;;;;;13.68;56.13;95847.34;5007143;28;20152;-72
2021/08/23 02:31:58;;;;;;;11.02;8.57;;;;;;;13.36;56.49;95844.16;5008500;28;20108;-72
2021/08/23 02:34:24;;;;;;;12.93;9.25;;;;;;;13.89;55.67;95840.34;5004868;28;20033;-72
2021/08/23 02:36:49;;;;;;;13.80;9.32;;;;;;;13.89;55.26;95848.38;5008281;28;20083;-72
2021/08/23 02:39:15;;;;;;;12.50;8.82;;;;;;;13.92;55.52;95853.34;5004315;28;20045;-71
2021/08/23 02:41:40;;;;;;;12.18;8.38;;;;;;;13.88;55.43;95849.41;5008734;28;20083;-72
2021/08/23 02:44:05;;;;;;;12.05;8.80;;;;;;;13.79;55.80;95854.03;5007310;28;20014;-72
2021/08/23 02:46:31;;;;;;;9.45;7.85;;;;;;;13.50;56.31;95861.16;5008245;28;20092;-72
2021/08/23 02:48:56;;;;;;;10.77;9.23;;;;;;;13.22;57.23;95851.19;5008447;28;20030;-72
2021/08/23 02:51:22;;;;;;;13.07;8.80;;;;;;;13.45;56.71;95855.56;5008526;28;20057;-72
2021/08/23 02:53:47;;;;;;;11.35;9.45;;;;;;;13.69;55.97;95856.19;5008140;28;20061;-72
2021/08/23 02:56:12;;;;;;;11.05;8.98;;;;;;;13.85;55.34;95856.94;5010479;28;20049;-72
2021/08/23 02:58:38;;;;;;;13.75;10.30;;;;;;;13.90;55.14;95852.69;5011639;28;20041;-72
2021/08/23 03:01:03;;;;;;;12.85;9.75;;;;;;;13.58;56.16;95862.88;5011983;28;20037;-72
2021/08/23 03:03:29;;;;;;;12.65;9.45;;;;;;;13.91;55.10;95859.69;5012770;28;20056;-72
2021/08/23 03:05:54;;;;;;;12.77;8.88;;;;;;;13.16;57.27;95863.47;5012066;28;20041;-72
2021/08/23 03:08:20;;;;;;;14.15;9.75;;;;;;;13.10;57.75;95858.06;5011994;28;20030;-72
2021/08/23 03:10:45;;;;;;;10.15;8.55;;;;;;;13.02;57.68;95862.50;5011760;28;20054;-72
2021/08/23 03:13:10;;;;;;;13.10;8.88;;;;;;;12.77;58.94;95861.97;5008428;28;20077;-71
2021/08/23 03:15:36;;;;;;;11.73;8.85;;;;;;;12.56;59.36;95863.53;5012342;28;20048;-72
2021/08/23 03:18:01;;;;;;;10.38;8.98;;;;;;;12.26;60.40;95872.38;5011597;28;20038;-70
2021/08/23 03:20:27;;;;;;;10.25;7.97;;;;;;;12.40;60.00;95872.56;5012230;28;20029;-70
2021/08/23 03:22:52;;;;;;;9.82;8.38;;;;;;;12.26;60.34;95867.03;5010196;28;20038;-70
2021/08/23 03:25:18;;;;;;;9.98;8.65;;;;;;;12.18;60.56;95874.28;5011634;28;20463;-70
2021/08/23 03:27:43;;;;;;;10.10;7.95;;;;;;;12.30;60.29;95880.84;5011785;28;20451;-70
2021/08/23 03:30:09;;;;;;;11.27;8.60;;;;;;;12.08;60.68;95878.06;5011282;28;20037;-70
2021/08/23 03:32:35;;;;;;;11.32;9.25;;;;;;;12.11;60.74;95876.88;5011627;28;20033;-71
2021/08/23 03:35:01;;;;;;;13.55;10.10;;;;;;;11.99;61.14;95879.09;5010156;28;20411;-71
2021/08/23 03:37:27;;;;;;;10.95;9.27;;;;;;;11.79;61.79;95868.94;5011670;28;20034;-71
2021/08/23 03:39:52;;;;;;;11.20;9.50;;;;;;;11.81;61.77;95864.25;5012166;28;20521;-71
2021/08/23 03:42:18;;;;;;;9.10;8.13;;;;;;;11.88;61.56;95867.88;5012022;28;20041;-71
2021/08/23 03:44:43;;;;;;;15.20;9.48;;;;;;;12.07;60.79;95868.38;5008055;28;20025;-71
2021/08/23 03:47:08;;;;;;;12.18;9.52;;;;;;;11.98;61.28;95874.78;5011186;28;20384;-71
2021/08/23 03:49:34;;;;;;;11.93;9.63;;;;;;;12.19;60.69;95873.28;5011808;28;20044;-71
2021/08/23 03:51:59;;;;;;;12.98;10.35;;;;;;;12.26;60.44;95875.03;5011512;28;20569;-70
2021/08/23 03:54:25;;;;;;;12.75;9.35;;;;;;;12.34;60.16;95873.31;5011399;28;20053;-70
2021/08/23 03:56:50;;;;;;;11.63;9.70;;;;;;;12.23;60.26;95875.41;5009608;28;20061;-70
2021/08/23 03:59:16;;;;;;;11.48;9.57;;;;;;;12.08;60.78;95878.06;5011518;28;20037;-70
2021/08/23 04:01:41;;;;;;;12.32;9.10;;;;;;;12.04;60.77;95882.06;5010683;28;20037;-70
2021/08/23 04:04:06;;;;;;;12.00;8.32;;;;;;;11.96;61.08;95887.44;5011495;28;20049;-72
2021/08/23 04:06:32;;;;;;;12.68;9.00;;;;;;;12.17;60.70;95891.31;5010843;28;20038;-72
2021/08/23 04:08:57;;;;;;;10.95;8.95;;;;;;;12.37;60.07;95894.28;5010946;28;20464;-71
2021/08/23 04:11:23;;;;;;;12.35;9.65;;;;;;;12.59;59.31;95883.72;5010782;28;20045;-71
2021/08/23 04:13:48;;;;;;;12.68;10.27;;;;;;;12.66;59.31;95888.16;5005939;28;20041;-72
2021/08/23 04:16:15;;;;;;;11.73;9.88;;;;;;;12.67;59.30;95884.44;5011390;28;20080;-73
2021/08/23 04:18:41;;;;;;;12.60;9.45;;;;;;;12.79;58.31;95890.13;5008422;28;20061;-72
2021/08/23 04:21:07;;;;;;;19.02;10.43;;;;;;;12.88;58.12;95882.84;5010882;28;20865;-72
2021/08/23 04:23:32;;;;;;;14.52;10.35;;;;;;;12.98;57.85;95885.25;5008503;28;20088;-72
2021/08/23 04:25:58;;;;;;;13.23;11.00;;;;;;;13.44;56.59;95889.47;5010730;28;20058;-72
2021/08/23 04:28:23;;;;;;;12.82;10.40;;;;;;;13.46;56.07;95883.13;5007710;28;20038;-72
2021/08/23 04:30:49;;;;;;;12.63;10.20;;;;;;;13.20;56.64;95887.16;5010272;28;20053;-72
2021/08/23 04:33:14;;;;;;;10.43;8.93;;;;;;;12.60;58.29;95898.72;5010584;28;20608;-72
2021/08/23 04:35:40;;;;;;;10.75;9.27;;;;;;;12.80;58.12;95899.84;5010478;28;20030;-72
2021/08/23 04:38:05;;;;;;;10.95;8.32;;;;;;;12.89;58.00;95899.72;5010454;28;20113;-72
2021/08/23 04:40:30;;;;;;;11.60;9.90;;;;;;;13.41;56.53;95902.41;5010520;28;20037;-71
2021/08/23 04:42:56;;;;;;;12.23;9.93;;;;;;;13.76;55.34;95905.25;5009174;28;20045;-71
2021/08/23 04:45:21;;;;;;;11.15;9.23;;;;;;;13.99;54.37;95903.41;5010005;28;20732;-72
2021/08/23 04:47:47;;;;;;;11.35;9.02;;;;;;;13.97;54.16;95914.28;5010491;28;20064;-72
2021/08/23 04:50:12;;;;;;;11.43;9.30;;;;;;;14.13;53.59;95915.88;5010271;28;20042;-71
2021/08/23 04:52:42;;;;;;;9.70;7.82;;;;;;;13.74;54.76;95911.81;5009204;28;20034;-72
2021/08/23 04:55:07;;;;;;;11.90;9.18;;;;;;;13.98;54.11;95913.31;5010102;28;20038;-72
2021/08/23 04:57:33;;;;;;;9.77;8.43;;;;;;;13.87;54.33;95913.78;5008648;28;20133;-72
2021/08/23 04:59:58;;;;;;;11.57;8.98;;;;;;;14.14;53.58;95917.53;5010395;28;20108;-72
2021/08/23 05:02:24;;;;;;;12.77;7.38;;;;;;;13.80;54.64;95919.06;5010143;28;20088;-72
2021/08/23 05:04:49;;;;;;;15.25;9.52;;;;;;;14.21;53.46;95922.94;5010071;28;20033;-72
2021/08/23 05:07:15;;;;;;;13.10;10.05;;;;;;;14.24;53.28;95914.53;5009809;28;20333;-72
2021/08/23 05:09:40;;;;;;;11.32;8.50;;;;;;;13.73;54.52;95919.00;5009600;28;20045;-71
2021/08/23 05:12:06;;;;;;;13.30;10.43;;;;;;;14.12;53.38;95918.75;5005357;28;20053;-71
2021/08/23 05:14:31;;;;;;;11.05;8.98;;;;;;;14.25;52.73;95916.19;5009230;28;20735;-71
2021/08/23 05:16:57;;;;;;;12.13;8.93;;;;;;;14.20;52.58;95916.78;5009689;28;20025;-71
2021/08/23 05:19:22;;;;;;;11.20;8.68;;;;;;;14.08;53.01;95913.78;5003462;28;20222;-71
2021/08/23 05:21:47;;;;;;;11.32;9.05;;;;;;;13.96;53.16;95915.31;5009721;28;20049;-71
2021/08/23 05:24:13;;;;;;;9.80;8.48;;;;;;;13.42;54.71;95914.75;5009898;28;20056;-71
2021/08/23 05:26:39;;;;;;;10.90;8.40;;;;;;;13.16;55.89;95914.25;5009137;28;20038;-71
2021/08/23 05:29:04;;;;;;;11.13;10.00;;;;;;;13.25;56.04;95911.47;5013324;28;20367;-72
2021/08/23 05:31:29;;;;;;;10.98;9.13;;;;;;;13.50;55.26;95905.81;5009752;28;20041;-73
2021/08/23 05:33:55;;;;;;;11.55;8.40;;;;;;;13.05;56.71;95915.59;5009857;28;20034;-72
2021/08/23 05:36:22;;;;;;;9.52;7.78;;;;;;;12.77;58.06;95913.56;5009634;28;20045;-73
2021/08/23 05:38:48;;;;;;;11.98;9.70;;;;;;;13.26;56.70;95910.50;4995102;28;20049;-74
2021/08/23 05:41:13;;;;;;;11.20;9.93;;;;;;;13.41;56.31;95916.63;5006237;28;20045;-75
2021/08/23 05:43:39;;;;;;;14.77;10.55;;;;;;;14.08;54.21;95905.75;5004291;28;20491;-75
2021/08/23 05:46:04;;;;;;;12.70;10.25;;;;;;;14.21;53.66;95918.41;5002870;28;20307;-75
2021/08/23 05:48:30;;;;;;;11.60;9.85;;;;;;;14.02;54.04;95921.75;5003215;28;20061;-75
2021/08/23 05:50:56;;;;;;;11.40;9.73;;;;;;;14.00;54.16;95919.28;5002972;28;20034;-75
2021/08/23 05:53:21;;;;;;;13.68;10.20;;;;;;;14.12;53.96;95918.75;5002903;28;20038;-75
2021/08/23 05:55:47;;;;;;;10.23;8.32;;;;;;;13.33;55.88;95921.25;5002667;28;20034;-75
2021/08/23 05:58:13;;;;;;;11.98;9.32;;;;;;;12.96;57.29;95919.34;5001578;28;20073;-75
2021/08/23 06:00:38;;;;;;;11.65;8.75;;;;;;;12.79;58.00;95927.53;5001189;28;20040;-75
2021/08/23 06:03:04;;;;;;;12.30;9.77;;;;;;;12.72;58.12;95934.63;5003032;28;20037;-73
2021/08/23 06:05:29;;;;;;;10.88;9.15;;;;;;;12.66;58.41;95933.56;5000474;28;20043;-72
2021/08/23 06:07:55;;;;;;;11.23;9.18;;;;;;;12.59;59.07;95937.97;4994896;28;20022;-72
2021/08/23 06:10:20;;;;;;;12.10;9.90;;;;;;;12.46;59.15;95938.59;4998767;28;20071;-72
2021/08/23 06:12:46;;;;;;;13.77;10.90;;;;;;;12.37;59.21;95942.31;5001532;28;20076;-72
2021/08/23 06:15:11;;;;;;;12.05;9.80;;;;;;;12.67;58.70;95934.34;5000885;28;20042;-72
2021/08/23 06:17:37;;;;;;;12.88;10.05;;;;;;;12.86;57.72;95930.31;5001360;28;20554;-73
2021/08/23 06:20:04;;;;;;;14.02;11.50;;;;;;;13.02;57.60;95936.53;5002442;28;20045;-72
2021/08/23 06:22:30;;;;;;;13.90;11.07;;;;;;;13.03;57.44;95935.50;4995182;28;20140;-73
2021/08/23 06:24:56;;;;;;;13.15;10.25;;;;;;;12.72;58.35;95939.16;5001707;28;20577;-72
2021/08/23 06:27:22;;;;;;;14.18;10.40;;;;;;;12.82;58.89;95937.06;5001086;28;20034;-73
2021/08/23 06:29:47;;;;;;;13.07;10.43;;;;;;;12.89;58.17;95931.78;5001344;28;20049;-72
2021/08/23 06:32:13;;;;;;;13.38;9.60;;;;;;;12.95;57.52;95935.56;5001914;28;20034;-73
2021/08/23 06:34:38;;;;;;;12.30;10.05;;;;;;;13.09;57.38;95936.59;4998559;28;20038;-73
2021/08/23 06:37:03;;;;;;;13.52;10.18;;;;;;;13.35;57.17;95941.44;5001414;28;20042;-73
2021/08/23 06:39:29;;;;;;;14.50;10.40;;;;;;;13.33;57.14;95940.81;4998817;28;20037;-73
2021/08/23 06:41:54;;;;;;;11.77;9.55;;;;;;;13.52;55.79;95941.19;5001963;28;20034;-73
2021/08/23 06:44:20;;;;;;;10.88;8.73;;;;;;;13.69;55.53;95937.28;5002384;28;20243;-72
2021/08/23 06:46:46;;;;;;;10.35;8.88;;;;;;;13.62;56.20;95941.72;5001758;28;20491;-72
2021/08/23 06:49:11;;;;;;;10.88;9.32;;;;;;;13.44;56.05;95956.34;5004178;28;20067;-71
2021/08/23 06:51:37;;;;;;;11.20;9.25;;;;;;;13.57;56.21;95949.50;5002383;28;20850;-72
2021/08/23 06:54:02;;;;;;;12.43;8.90;;;;;;;13.85;54.87;95946.09;5000798;28;20602;-73
2021/08/23 06:56:28;;;;;;;12.65;10.20;;;;;;;13.83;55.20;95948.94;5002038;28;20412;-72
2021/08/23 06:58:54;;;;;;;12.93;10.10;;;;;;;13.62;55.98;95957.78;5002325;28;20474;-72
2021/08/23 07:01:20;;;;;;;12.73;10.32;;;;;;;13.81;54.95;95958.19;4999716;28;20084;-72
2021/08/23 07:03:46;;;;;;;11.63;10.43;;;;;;;13.79;54.82;95953.03;5001974;28;20049;-73
2021/08/23 07:06:12;;;;;;;13.68;10.18;;;;;;;13.41;56.08;95951.38;5000182;28;20088;-72
2021/08/23 07:08:37;;;;;;;12.40;10.43;;;;;;;13.88;54.90;95956.44;5003038;28;20117;-72
2021/08/23 07:11:03;;;;;;;13.15;10.93;;;;;;;13.22;57.02;95960.00;5001602;28;20061;-73
2021/08/23 07:13:29;;;;;;;13.07;10.82;;;;;;;13.46;56.43;95958.03;5002156;28;20030;-67
2021/08/23 07:15:55;;;;;;;12.07;10.65;;;;;;;13.43;56.40;95960.03;5000402;28;20470;-67
2021/08/23 07:18:22;;;;;;;12.68;10.70;;;;;;;13.78;56.21;95954.06;4996995;28;20145;-67
2021/08/23 07:20:51;;;;;;;15.35;11.75;;;;;;;13.98;54.77;95964.16;4999718;28;20042;-68
2021/08/23 07:23:17;;;;;;;12.77;10.85;;;;;;;14.21;55.61;95965.78;5000851;28;20035;-67
2021/08/23 07:25:42;;;;;;;13.30;10.50;;;;;;;14.53;54.42;95960.91;4995846;28;20038;-68
2021/08/23 07:28:08;;;;;;;13.90;11.35;;;;;;;14.83;52.56;95963.38;5001639;28;20026;-68
2021/08/23 07:30:33;;;;;;;12.75;9.73;;;;;;;14.97;51.71;95958.94;5001793;28;20440;-68
2021/08/23 07:32:58;;;;;;;12.55;10.48;;;;;;;15.43;50.94;95959.34;5001765;28;20082;-68
2021/08/23 07:35:24;;;;;;;11.32;9.70;;;;;;;15.33;51.42;95964.28;5001633;28;20575;-68
2021/08/23 07:37:50;;;;;;;15.07;10.60;;;;;;;15.61;50.51;95963.38;5001186;28;20128;-68
2021/08/23 07:40:15;;;;;;;15.02;10.10;;;;;;;15.52;50.77;95970.72;5001573;28;20467;-69
2021/08/23 07:42:41;;;;;;;13.65;10.27;;;;;;;15.70;50.29;95964.00;4999027;28;20370;-71
2021/08/23 07:45:07;;;;;;;13.73;11.38;;;;;;;15.75;49.84;95966.91;5003586;28;20074;-70
2021/08/23 07:47:34;;;;;;;12.23;10.32;;;;;;;15.90;49.81;95971.28;5005012;28;20037;-70
2021/08/23 07:50:00;;;;;;;12.23;9.95;;;;;;;15.80;49.46;95971.66;5002393;28;20034;-71
2021/08/23 07:52:25;;;;;;;10.85;9.63;;;;;;;15.84;49.73;95972.94;5006145;28;20045;-71
2021/08/23 07:54:51;;;;;;;13.05;9.80;;;;;;;15.79;50.51;95972.69;5005249;28;20050;-71
2021/08/23 07:57:16;;;;;;;11.95;9.95;;;;;;;15.62;50.54;95978.44;5004879;28;20038;-70
2021/08/23 07:59:41;;;;;;;13.35;9.85;;;;;;;15.66;49.96;95979.69;4998418;28;20475;-71
2021/08/23 08:02:07;;;;;;;12.98;9.73;;;;;;;15.19;51.63;95991.00;5003279;28;20492;-71
2021/08/23 08:04:32;;;;;;;12.52;9.73;;;;;;;15.21;51.18;95990.81;5004533;28;20029;-71
2021/08/23 08:06:58;;;;;;;11.32;9.68;;;;;;;15.31;51.44;95993.97;5002442;28;20064;-71
2021/08/23 08:09:23;;;;;;;13.55;9.57;;;;;;;15.29;51.32;95987.97;4999986;28;20434;-71
2021/08/23 08:11:49;;;;;;;11.38;9.48;;;;;;;15.29;50.63;95992.50;5003699;28;20050;-71
2021/08/23 08:14:14;;;;;;;11.45;9.23;;;;;;;15.20;51.41;95997.22;5005314;28;20403;-71
2021/08/23 08:16:39;;;;;;;12.25;9.38;;;;;;;15.38;51.39;96006.56;5005334;28;20037;-71
2021/08/23 08:19:05;;;;;;;12.18;9.00;;;;;;;15.58;51.00;95993.28;5004703;28;20038;-71
2021/08/23 08:21:30;;;;;;;8.65;7.70;;;;;;;15.65;50.20;95996.81;5004767;28;20044;-70
2021/08/23 08:23:56;;;;;;;10.70;9.30;;;;;;;15.49;50.27;96000.63;5004283;28;20042;-71
2021/08/23 08:26:21;;;;;;;10.10;8.13;;;;;;;15.60;50.92;96001.94;5005662;28;20040;-71
2021/08/23 08:28:47;;;;;;;8.77;6.82;;;;;;;16.02;50.07;96007.25;5001764;28;20150;-71
2021/08/23 08:31:12;;;;;;;12.50;8.43;;;;;;;16.56;48.30;96006.50;5003804;28;20435;-71
2021/08/23 08:33:38;;;;;;;9.88;7.45;;;;;;;16.48;48.80;96010.19;5002779;28;20113;-71
2021/08/23 08:36:03;;;;;;;9.45;6.40;;;;;;;17.09;46.49;96008.28;5003576;28;20037;-71
2021/08/23 08:38:29;;;;;;;10.00;7.90;;;;;;;17.19;46.94;96005.19;5004641;28;20460;-71
2021/08/23 08:40:57;;;;;;;8.98;7.15;;;;;;;17.22;46.64;96012.84;5003555;28;20045;-71
2021/08/23 08:43:22;;;;;;;8.40;7.25;;;;;;;17.15;46.35;96014.72;5005612;28;20041;-72
2021/08/23 08:45:48;;;;;;;11.25;8.77;;;;;;;16.54;47.12;96017.44;5002379;28;20517;-71
2021/08/23 08:48:13;;;;;;;11.52;8.30;;;;;;;15.87;49.30;96020.81;5000143;28;20472;-70
2021/08/23 08:50:39;;;;;;;11.60;8.93;;;;;;;15.41;50.93;96017.75;4985463;28;20034;-71
2021/08/23 08:53:06;;;;;;;9.20;8.20;;;;;;;15.30;50.87;96031.72;5003265;28;20067;-70
2021/08/23 08:55:35;;;;;;;11.00;9.10;;;;;;;15.19;51.59;96031.25;5002402;28;20042;-71
2021/08/23 08:58:05;;;;;;;12.77;9.43;;;;;;;15.14;50.92;96025.66;5000917;28;20920;-70
2021/08/23 09:00:32;;;;;;;12.07;9.80;;;;;;;15.12;51.61;96030.38;5004098;28;20538;-71
2021/08/23 09:03:00;;;;;;;12.50;10.60;;;;;;;15.07;51.83;96032.81;4999801;28;20109;-71
2021/08/23 09:05:33;;;;;;;12.52;9.80;;;;;;;15.05;52.85;96030.34;5001715;28;20554;-70
2021/08/23 09:08:01;;;;;;;12.18;9.73;;;;;;;15.05;52.39;96035.69;4999722;28;20110;-69
2021/08/23 09:10:26;;;;;;;11.90;9.30;;;;;;;15.30;52.28;96042.44;5002073;28;20118;-70
2021/08/23 09:13:08;;;;;;;13.32;10.00;;;;;;;15.63;51.39;96043.69;4999169;28;20083;-70
2021/08/23 09:15:34;;;;;;;11.35;9.70;;;;;;;15.92;50.13;96034.47;4999131;28;20755;-70
2021/08/23 09:18:04;;;;;;;12.77;9.93;;;;;;;15.85;51.49;96044.38;5003076;28;20133;-71
2021/08/23 09:20:30;;;;;;;13.45;10.43;;;;;;;16.02;50.45;96038.63;5001261;28;20093;-71
2021/08/23 09:23:08;;;;;;;13.70;10.60;;;;;;;15.79;50.82;96046.00;5001270;28;20102;-71
2021/08/23 09:25:34;;;;;;;12.45;10.15;;;;;;;15.69;52.23;96051.75;5000581;28;20552;-71
2021/08/23 09:28:04;;;;;;;16.65;9.88;;;;;;;15.35;52.31;96051.56;5003465;28;20599;-70
2021/08/23 09:30:29;;;;;;;13.13;10.48;;;;;;;15.46;52.14;96057.38;5003002;28;20109;-71
2021/08/23 09:32:57;;;;;;;12.25;9.98;;;;;;;15.53;52.33;96047.50;5002867;28;20086;-70
2021/08/23 09:35:37;;;;;;;11.93;9.65;;;;;;;15.67;53.07;96045.75;5000671;28;20105;-70
2021/08/23 09:38:09;;;;;;;10.85;9.27;;;;;;;15.63;52.65;96055.22;5003321;28;20599;-70
2021/08/23 09:40:34;;;;;;;12.85;10.13;;;;;;;15.52;52.18;96058.44;5000904;28;20082;-70
2021/08/23 09:43:08;;;;;;;12.90;10.45;;;;;;;15.71;52.13;96057.72;5003230;28;20121;-70
2021/08/23 09:45:34;;;;;;;12.45;9.35;;;;;;;15.83;51.84;96062.53;4999692;28;20535;-70
2021/08/23 09:48:03;;;;;;;12.65;9.93;;;;;;;15.81;52.16;96056.53;4994124;28;20434;-69
2021/08/23 09:50:39;;;;;;;11.15;8.55;;;;;;;16.06;51.60;96061.34;4997285;28;20036;-69
2021/08/23 09:53:06;;;;;;;10.60;8.85;;;;;;;15.94;50.97;96061.94;4996462;28;20061;-68
2021/08/23 09:55:32;;;;;;;11.65;8.48;;;;;;;16.13;50.67;96064.91;5002248;28;20030;-68
2021/08/23 09:57:57;;;;;;;10.93;8.80;;;;;;;15.94;50.79;96071.88;5001501;28;20076;-68
2021/08/23 10:00:23;;;;;;;11.75;8.38;;;;;;;15.85;50.77;96073.91;5001818;28;20030;-69
2021/08/23 10:02:48;;;;;;;10.80;8.68;;;;;;;15.59;52.04;96070.91;4998525;28;20196;-69
2021/08/23 10:05:18;;;;;;;8.82;7.45;;;;;;;15.57;52.68;96072.94;5001076;28;20038;-69
2021/08/23 10:07:44;;;;;;;11.35;8.27;;;;;;;15.39;53.44;96068.06;4993158;28;20069;-68
2021/08/23 10:10:10;;;;;;;12.05;8.60;;;;;;;15.31;53.36;96065.56;5000495;28;20058;-69
2021/08/23 10:12:35;;;;;;;7.55;5.78;;;;;;;15.46;53.42;96063.56;4993123;28;20093;-68
2021/08/23 10:15:01;;;;;;;6.80;5.07;;;;;;;15.48;51.53;96061.53;4989658;28;20086;-68
2021/08/23 10:17:28;;;;;;;6.40;4.65;;;;;;;15.39;52.53;96067.22;4992994;28;20065;-68
2021/08/23 10:19:54;;;;;;;8.60;7.00;;;;;;;15.51;52.21;96065.69;4999509;28;20048;-69
2021/08/23 10:22:19;;;;;;;9.35;7.28;;;;;;;15.55;52.42;96066.94;4989121;28;20255;-69
2021/08/23 10:24:46;;;;;;;8.98;7.00;;;;;;;15.75;51.68;96063.53;4997990;28;20127;-69
2021/08/23 10:27:21;;;;;;;6.13;4.90;;;;;;;15.79;52.00;96069.31;4996961;28;20038;-69
2021/08/23 10:29:47;;;;;;;7.65;5.07;;;;;;;15.86;51.72;96075.53;5002933;28;20399;-68
2021/08/23 10:32:13;;;;;;;7.18;5.10;;;;;;;15.60;52.35;96075.22;4994960;28;20471;-68
2021/08/23 10:34:38;;;;;;;6.45;5.40;;;;;;;15.97;52.01;96074.13;4993046;28;20068;-69
2021/08/23 10:37:17;;;;;;;6.88;4.28;;;;;;;16.36;51.44;96069.13;4993759;28;20117;-69
2021/08/23 10:39:43;;;;;;;4.30;3.90;;;;;;;16.69;50.97;96073.69;4993193;28;20074;-69
2021/08/23 10:42:12;;;;;;;4.78;3.90;;;;;;;17.25;48.85;96070.78;4994322;28;20154;-69
2021/08/23 10:44:38;;;;;;;5.20;4.10;;;;;;;17.01;48.69;96075.75;4987196;28;20082;-70
2021/08/23 10:47:10;;;;;;;4.20;3.80;;;;;;;18.07;47.16;96074.88;4998909;28;20083;-70
2021/08/23 10:49:39;;;;;;;6.85;5.40;;;;;;;19.04;44.52;96066.78;4993390;28;20583;-70
2021/08/23 10:52:05;;;;;;;6.45;5.20;;;;;;;19.50;43.56;96063.84;4993516;28;20035;-70
2021/08/23 10:54:44;;;;;;;3.35;3.05;;;;;;;19.75;43.96;96058.38;4992148;28;20068;-70
2021/08/23 10:57:11;;;;;;;3.83;3.30;;;;;;;17.95;46.03;96071.22;4996837;28;20460;-71
2021/08/23 10:59:40;;;;;;;3.88;3.05;;;;;;;19.15;43.67;96059.81;4995318;28;20038;-68
2021/08/23 11:02:06;;;;;;;3.95;2.90;;;;;;;18.66;44.91;96058.56;5000217;28;20438;-67
2021/08/23 11:04:37;;;;;;;3.97;3.30;;;;;;;18.90;44.97;96063.38;5001320;28;20091;-67
2021/08/23 11:07:03;;;;;;;5.90;3.30;;;;;;;19.13;43.23;96070.00;4978013;28;20412;-67
2021/08/23 11:09:36;;;;;;;4.22;3.83;;;;;;;19.61;42.47;96065.00;4994814;28;20122;-66
2021/08/23 11:12:15;;;;;;;4.15;3.60;;;;;;;20.19;42.56;96074.47;4982518;28;20064;-66
2021/08/23 11:14:45;;;;;;;4.95;3.75;;;;;;;20.05;41.92;96071.13;4997195;28;20585;-67
2021/08/23 11:17:10;;;;;;;7.13;4.78;;;;;;;19.32;43.32;96073.59;5004503;28;20134;-66
2021/08/23 11:19:40;;;;;;;3.35;3.03;;;;;;;20.02;42.16;96068.88;5005462;28;20034;-67
2021/08/23 11:22:05;;;;;;;3.58;3.28;;;;;;;20.10;41.69;96070.44;4999757;28;20435;-67